Time;durP1;ratioP1;P1;durP2;ratioP2;P2;SDS_P1;SDS_P2;PMS_P1;PMS_P2;Temp;Humidity;BMP_temperature;BMP_pressure;BME280_temperature;BME280_humidity;BME280_pressure;Samples;Min_cycle;Max_cycle;Signal;HPM_P1;HPM_P2
2023/03/13 00:01:38;;;;;;;3.07;2.30;;;16.90;59.00;18.10;99718.00;;;;5010352;28;20713;-45
2023/03/13 00:04:04;;;;;;;3.77;2.53;;;16.90;58.90;18.10;99703.00;;;;5009699;28;20228;-45
2023/03/13 00:06:35;;;;;;;3.23;2.50;;;16.90;58.90;18.20;99716.00;;;;5010424;28;20663;-45
2023/03/13 00:09:01;;;;;;;4.13;2.53;;;16.90;59.00;18.10;99703.00;;;;5010305;28;20304;-46
2023/03/13 00:11:27;;;;;;;3.47;2.30;;;16.90;59.10;18.10;99686.00;;;;5008695;28;20180;-45
2023/03/13 00:13:57;;;;;;;2.87;2.30;;;16.90;59.00;18.10;99678.00;;;;5010281;28;20248;-46
2023/03/13 00:16:24;;;;;;;4.33;2.40;;;16.80;59.10;18.10;99663.00;;;;5010090;28;20275;-45
2023/03/13 00:18:51;;;;;;;3.17;2.10;;;16.80;59.10;18.10;99660.00;;;;5010573;28;20278;-44
2023/03/13 00:21:19;;;;;;;3.53;2.60;;;16.80;59.10;18.10;99652.00;;;;5009029;28;20231;-45
2023/03/13 00:23:44;;;;;;;3.20;2.40;;;16.80;59.10;18.10;99650.00;;;;5009878;28;20194;-45
2023/03/13 00:26:12;;;;;;;2.73;2.30;;;16.80;59.10;18.10;99641.00;;;;5009799;28;20178;-45
2023/03/13 00:28:39;;;;;;;4.17;2.60;;;16.80;59.10;18.10;99637.00;;;;5009625;28;20194;-44
2023/03/13 00:31:22;;;;;;;3.20;2.33;;;16.80;59.10;18.00;99629.00;;;;5009513;28;20191;-45
2023/03/13 00:33:51;;;;;;;3.47;2.40;;;16.80;59.10;18.00;99630.00;;;;5009645;28;20193;-44
2023/03/13 00:36:28;;;;;;;3.00;2.30;;;16.80;59.10;18.00;99613.00;;;;5008518;28;20241;-46
2023/03/13 00:38:54;;;;;;;3.30;2.50;;;16.70;59.00;18.00;99616.00;;;;5010261;28;20558;-46
2023/03/13 00:41:22;;;;;;;3.20;2.30;;;16.80;59.10;18.00;99616.00;;;;5009690;28;20181;-45
2023/03/13 00:43:48;;;;;;;2.80;2.20;;;16.70;59.10;18.00;99615.00;;;;5009694;28;20191;-46
2023/03/13 00:46:15;;;;;;;3.30;2.43;;;16.70;59.00;18.00;99606.00;;;;5010174;28;20200;-44
2023/03/13 00:48:41;;;;;;;3.27;2.23;;;16.70;59.10;18.00;99603.00;;;;5008399;28;20348;-45
2023/03/13 00:51:07;;;;;;;3.27;2.33;;;16.70;59.00;18.00;99598.00;;;;5009681;28;20245;-45
2023/03/13 00:53:33;;;;;;;2.53;2.17;;;16.70;59.00;18.00;99598.00;;;;5009564;28;20176;-47
2023/03/13 00:56:13;;;;;;;3.23;2.47;;;16.70;59.00;18.00;99596.00;;;;5009235;28;20662;-45
2023/03/13 00:58:40;;;;;;;3.63;2.20;;;16.70;59.10;17.90;99594.00;;;;5009107;28;20254;-45
2023/03/13 01:01:11;;;;;;;2.67;2.30;;;16.70;59.10;17.90;99591.00;;;;5009157;28;20180;-47
2023/03/13 01:03:37;;;;;;;3.47;2.30;;;16.60;59.10;17.90;99593.00;;;;5009300;28;20184;-46
2023/03/13 01:06:04;;;;;;;3.60;2.40;;;16.70;59.20;17.90;99594.00;;;;5008974;28;20172;-45
2023/03/13 01:08:30;;;;;;;3.07;2.33;;;16.60;59.10;17.90;99586.00;;;;5009173;28;20202;-45
2023/03/13 01:11:07;;;;;;;3.37;2.50;;;16.60;59.10;17.90;99579.00;;;;5008906;28;20203;-46
2023/03/13 01:13:33;;;;;;;3.30;2.30;;;16.60;59.10;17.90;99570.00;;;;5009274;28;20185;-44
2023/03/13 01:16:16;;;;;;;3.53;2.30;;;16.60;59.20;17.90;99562.00;;;;5009313;28;20196;-46
2023/03/13 01:18:45;;;;;;;4.23;2.37;;;16.60;59.20;17.90;99550.00;;;;5009261;28;20295;-45
2023/03/13 01:21:12;;;;;;;3.90;2.47;;;16.60;59.10;17.90;99557.00;;;;5009084;28;20183;-46
2023/03/13 01:23:37;;;;;;;2.97;2.27;;;16.60;59.20;17.90;99552.00;;;;5008998;28;20239;-46
2023/03/13 01:26:06;;;;;;;3.03;2.40;;;16.60;59.20;17.80;99547.00;;;;5008995;28;20172;-46
2023/03/13 01:28:32;;;;;;;2.67;2.10;;;16.60;59.20;17.80;99541.00;;;;5009130;28;20207;-47
2023/03/13 01:30:58;;;;;;;2.90;2.20;;;16.60;59.30;17.80;99532.00;;;;5008837;28;20266;-46
2023/03/13 01:33:24;;;;;;;3.27;2.30;;;16.60;59.30;17.80;99533.00;;;;5008820;28;20212;-46
2023/03/13 01:35:50;;;;;;;2.60;2.10;;;16.60;59.40;17.60;99529.00;;;;5008951;28;20184;-46
2023/03/13 01:38:15;;;;;;;2.87;2.20;;;16.60;59.40;17.80;99520.00;;;;5011156;28;20202;-45
2023/03/13 01:40:46;;;;;;;2.70;2.20;;;16.50;59.30;17.80;99510.00;;;;5012544;28;20251;-45
2023/03/13 01:43:22;;;;;;;3.87;2.43;;;16.50;59.40;17.80;99507.00;;;;5012577;28;20179;-46
2023/03/13 01:46:15;;;;;;;3.27;2.20;;;16.60;59.40;17.80;99505.00;;;;5012571;28;20268;-46
2023/03/13 01:49:20;;;;;;;2.80;2.30;;;16.50;59.30;17.80;99495.00;;;;5012731;28;20223;-46
2023/03/13 01:51:54;;;;;;;3.10;2.23;;;16.50;59.30;17.70;99490.00;;;;5011373;28;20219;-45
2023/03/13 01:54:27;;;;;;;2.77;2.20;;;16.50;59.40;17.70;99487.00;;;;5012650;28;20566;-46
2023/03/13 01:57:01;;;;;;;3.00;2.20;;;16.50;59.30;17.70;99474.00;;;;5012801;28;20609;-46
2023/03/13 01:59:36;;;;;;;2.80;2.27;;;16.50;59.40;17.60;99470.00;;;;5012017;28;20470;-46
2023/03/13 02:02:02;;;;;;;2.37;2.00;;;16.50;59.30;17.70;99464.00;;;;5011410;28;20711;-46
2023/03/13 02:04:38;;;;;;;3.10;2.17;;;16.50;59.30;17.70;99448.00;;;;5011452;28;20175;-45
2023/03/13 02:07:09;;;;;;;4.10;2.30;;;16.50;59.30;17.70;99438.00;;;;5011296;28;20541;-45
2023/03/13 02:09:35;;;;;;;2.83;2.13;;;16.50;59.30;17.70;99453.00;;;;5010979;28;20207;-46
2023/03/13 02:12:16;;;;;;;2.97;2.30;;;16.50;59.30;17.70;99445.00;;;;5011693;28;20211;-46
2023/03/13 02:14:44;;;;;;;2.73;2.00;;;16.50;59.30;17.70;99434.00;;;;5012460;28;20213;-45
2023/03/13 02:17:09;;;;;;;3.33;2.17;;;16.50;59.30;17.70;99428.00;;;;5011880;28;20203;-46
2023/03/13 02:19:48;;;;;;;2.63;2.30;;;16.50;59.30;17.70;99423.00;;;;5012268;28;20200;-45
2023/03/13 02:22:26;;;;;;;3.27;2.47;;;16.50;59.40;17.70;99411.00;;;;5010619;28;20221;-46
2023/03/13 02:25:26;;;;;;;2.50;2.20;;;16.50;59.40;17.70;99406.00;;;;5011898;28;20569;-47
2023/03/13 02:28:20;;;;;;;3.43;2.30;;;16.40;59.30;17.70;99412.00;;;;5010657;28;20563;-45
2023/03/13 02:30:47;;;;;;;3.27;2.17;;;16.50;59.40;17.60;99390.00;;;;5010618;28;20216;-45
2023/03/13 02:33:13;;;;;;;2.80;2.07;;;16.40;59.30;17.70;99399.00;;;;5010617;28;20670;-45
2023/03/13 02:35:39;;;;;;;2.47;2.27;;;16.40;59.50;17.60;99398.00;;;;5012186;28;20180;-46
2023/03/13 02:38:07;;;;;;;2.40;1.97;;;16.40;59.40;17.60;99387.00;;;;5010334;28;20228;-45
2023/03/13 02:40:40;;;;;;;2.50;2.00;;;16.40;59.40;17.60;99387.00;;;;5010392;28;20660;-46
2023/03/13 02:43:34;;;;;;;3.10;2.23;;;16.40;59.40;17.60;99392.00;;;;5010374;28;20187;-50
2023/03/13 02:46:23;;;;;;;3.63;2.13;;;16.40;59.40;17.60;99400.00;;;;5010502;28;20184;-46
2023/03/13 02:48:54;;;;;;;3.47;2.10;;;16.40;59.40;17.60;99401.00;;;;5011209;28;20692;-46
2023/03/13 02:51:51;;;;;;;2.83;2.00;;;16.40;59.30;17.60;99395.00;;;;5011561;28;20186;-45
2023/03/13 02:54:21;;;;;;;3.37;2.20;;;16.40;59.40;17.60;99393.00;;;;5010122;28;20275;-46
2023/03/13 02:56:49;;;;;;;2.70;1.93;;;16.40;59.40;17.60;99388.00;;;;5010398;28;20574;-45
2023/03/13 02:59:15;;;;;;;2.47;2.00;;;16.30;59.30;17.60;99385.00;;;;5011256;28;20717;-46
2023/03/13 03:01:41;;;;;;;2.53;2.10;;;16.40;59.40;17.60;99376.00;;;;5011418;28;20188;-46
2023/03/13 03:04:06;;;;;;;3.07;2.10;;;16.40;59.40;17.60;99380.00;;;;5010114;28;20229;-45
2023/03/13 03:06:32;;;;;;;3.63;2.20;;;16.30;59.30;17.60;99370.00;;;;5011610;28;20259;-45
2023/03/13 03:08:58;;;;;;;2.80;2.10;;;16.30;59.30;17.60;99372.00;;;;5011408;28;20214;-46
2023/03/13 03:11:24;;;;;;;2.43;2.00;;;16.30;59.30;17.60;99353.00;;;;5011360;28;20699;-46
2023/03/13 03:13:49;;;;;;;2.10;1.87;;;16.30;59.30;17.60;99344.00;;;;5010110;28;20654;-46
2023/03/13 03:16:17;;;;;;;2.20;2.00;;;16.30;59.40;17.60;99343.00;;;;5011128;28;20649;-45
2023/03/13 03:18:43;;;;;;;2.50;2.10;;;16.30;59.40;17.60;99340.00;;;;5010974;28;20730;-45
2023/03/13 03:21:09;;;;;;;3.03;2.10;;;16.30;59.40;17.60;99326.00;;;;5010933;28;20262;-46
2023/03/13 03:23:35;;;;;;;2.17;1.90;;;16.20;59.40;17.50;99323.00;;;;5010905;28;20188;-45
2023/03/13 03:26:01;;;;;;;2.20;1.93;;;16.30;59.50;17.50;99332.00;;;;5010897;28;20315;-45
2023/03/13 03:28:27;;;;;;;2.33;2.10;;;16.30;59.40;17.50;99341.00;;;;5009384;28;20192;-46
2023/03/13 03:30:53;;;;;;;2.77;2.00;;;16.30;59.40;17.50;99341.00;;;;5010815;28;20201;-45
2023/03/13 03:33:20;;;;;;;2.93;1.73;;;16.30;59.40;17.50;99340.00;;;;5002679;28;20275;-46
2023/03/13 03:35:46;;;;;;;2.30;2.10;;;16.20;59.40;17.50;99342.00;;;;5010593;28;20184;-46
2023/03/13 03:38:11;;;;;;;3.60;2.20;;;16.30;59.50;17.50;99341.00;;;;5014843;28;20202;-45
2023/03/13 03:40:37;;;;;;;3.37;2.23;;;16.30;59.50;17.50;99337.00;;;;5014898;28;20184;-45
2023/03/13 03:43:03;;;;;;;2.43;1.77;;;16.30;59.50;17.30;99334.00;;;;5014363;28;20197;-45
2023/03/13 03:45:29;;;;;;;2.30;1.63;;;16.30;59.40;17.50;99317.00;;;;5010992;28;20526;-45
2023/03/13 03:47:58;;;;;;;2.37;1.90;;;16.20;59.60;17.50;99321.00;;;;5010492;28;20203;-44
2023/03/13 03:50:27;;;;;;;2.10;1.80;;;16.30;60.00;17.50;99325.00;;;;5010248;28;20226;-46
2023/03/13 03:52:52;;;;;;;2.40;2.03;;;16.20;60.00;17.50;99322.00;;;;5010464;28;20168;-45
2023/03/13 03:55:18;;;;;;;2.83;1.80;;;16.30;60.00;17.50;99313.00;;;;5010423;28;20180;-45
2023/03/13 03:57:44;;;;;;;2.93;2.00;;;16.20;59.90;17.50;99319.00;;;;5010183;28;20700;-46
2023/03/13 04:00:12;;;;;;;2.43;1.80;;;16.20;59.90;17.50;99314.00;;;;5009460;28;20183;-46
2023/03/13 04:02:38;;;;;;;2.13;1.90;;;16.20;59.90;17.50;99312.00;;;;5009106;28;20187;-45
2023/03/13 04:05:04;;;;;;;2.00;1.80;;;16.20;59.80;17.50;99294.00;;;;5010155;28;20237;-45
2023/03/13 04:07:30;;;;;;;2.53;2.10;;;16.20;59.90;17.50;99307.00;;;;5010235;28;20733;-45
2023/03/13 04:09:56;;;;;;;2.17;1.80;;;16.20;59.80;17.50;99313.00;;;;5010053;28;20209;-45
2023/03/13 04:12:21;;;;;;;2.80;2.17;;;16.30;60.00;17.50;99305.00;;;;5010176;28;20179;-46
2023/03/13 04:14:47;;;;;;;2.20;2.00;;;16.20;59.80;17.50;99307.00;;;;5010418;28;20202;-45
2023/03/13 04:17:13;;;;;;;1.90;1.70;;;16.20;59.80;17.40;99299.00;;;;5010017;28;20647;-46
2023/03/13 04:19:38;;;;;;;2.13;1.80;;;16.20;59.80;17.40;99289.00;;;;5010027;28;20200;-45
2023/03/13 04:22:04;;;;;;;2.00;1.80;;;16.20;59.80;17.50;99292.00;;;;5009613;28;20198;-45
2023/03/13 04:24:30;;;;;;;1.90;1.70;;;16.20;60.00;17.40;99289.00;;;;5010092;28;20766;-46
2023/03/13 04:26:56;;;;;;;1.80;1.40;;;16.20;59.90;17.40;99280.00;;;;5009875;28;20199;-44
2023/03/13 04:29:21;;;;;;;1.90;1.70;;;16.20;59.80;17.40;99271.00;;;;5009817;28;20219;-46
2023/03/13 04:31:47;;;;;;;1.77;1.50;;;16.20;59.80;17.40;99272.00;;;;5008956;28;20188;-45
2023/03/13 04:34:13;;;;;;;2.30;1.37;;;16.20;59.80;17.40;99277.00;;;;5004896;28;20191;-46
2023/03/13 04:36:38;;;;;;;3.17;1.77;;;16.20;59.90;17.40;99272.00;;;;5009079;28;20210;-44
2023/03/13 04:39:04;;;;;;;2.27;1.80;;;16.20;60.00;17.40;99275.00;;;;5008659;28;20215;-45
2023/03/13 04:41:30;;;;;;;1.60;1.50;;;16.20;60.00;17.40;99266.00;;;;5006517;28;20183;-45
2023/03/13 04:43:56;;;;;;;2.27;1.70;;;16.20;60.00;17.40;99269.00;;;;5008016;28;20447;-44
2023/03/13 04:46:21;;;;;;;2.93;1.90;;;16.20;59.90;17.40;99265.00;;;;5009475;28;20186;-45
2023/03/13 04:48:47;;;;;;;3.77;1.70;;;16.20;60.00;17.40;99273.00;;;;5009193;28;20244;-46
2023/03/13 04:51:13;;;;;;;2.83;2.00;;;16.20;60.00;17.40;99269.00;;;;5009216;28;20185;-46
2023/03/13 04:53:38;;;;;;;3.47;1.70;;;16.20;59.90;17.40;99267.00;;;;5012040;28;20173;-45
2023/03/13 04:56:04;;;;;;;4.00;2.10;;;16.20;59.90;17.40;99265.00;;;;5010727;28;20233;-46
2023/03/13 04:58:30;;;;;;;2.00;1.60;;;16.20;60.00;17.40;99259.00;;;;5011172;28;20215;-46
2023/03/13 05:00:56;;;;;;;2.10;1.40;;;16.20;60.00;17.40;99255.00;;;;5011514;28;20181;-45
2023/03/13 05:03:22;;;;;;;2.03;1.60;;;16.20;59.90;17.30;99252.00;;;;5011283;28;20195;-46
2023/03/13 05:05:48;;;;;;;2.00;1.80;;;16.10;59.80;17.30;99259.00;;;;5010902;28;20595;-45
2023/03/13 05:08:14;;;;;;;1.50;1.40;;;16.10;59.80;17.30;99254.00;;;;5009373;28;20219;-44
2023/03/13 05:10:42;;;;;;;1.83;1.70;;;16.10;59.80;17.30;99253.00;;;;5008625;28;20254;-47
2023/03/13 05:13:07;;;;;;;2.10;1.60;;;16.10;59.70;17.30;99251.00;;;;5009100;28;20293;-44
2023/03/13 05:15:33;;;;;;;3.67;1.70;;;16.10;59.80;17.30;99248.00;;;;5009086;28;20247;-45
2023/03/13 05:17:59;;;;;;;1.43;1.33;;;16.10;59.70;17.30;99252.00;;;;5009089;28;20192;-46
2023/03/13 05:20:25;;;;;;;1.43;1.33;;;16.10;59.80;17.30;99235.00;;;;5009129;28;20256;-44
2023/03/13 05:22:50;;;;;;;2.50;1.80;;;16.10;59.70;17.30;99243.00;;;;5009197;28;20184;-45
2023/03/13 05:25:16;;;;;;;1.70;1.60;;;16.10;59.80;17.30;99239.00;;;;5008974;28;20180;-44
2023/03/13 05:27:42;;;;;;;2.00;1.60;;;16.10;59.80;17.10;99245.00;;;;5008266;28;20203;-46
2023/03/13 05:30:08;;;;;;;1.83;1.70;;;16.10;59.80;17.30;99218.00;;;;5007728;28;20270;-45
2023/03/13 05:32:34;;;;;;;2.53;1.43;;;16.10;59.90;17.30;99244.00;;;;5006537;28;20184;-46
2023/03/13 05:35:00;;;;;;;3.93;1.80;;;16.10;59.90;17.30;99232.00;;;;5009080;28;20903;-46
2023/03/13 05:37:25;;;;;;;3.77;1.40;;;16.10;60.00;17.30;99235.00;;;;5009460;28;20202;-46
2023/03/13 05:39:51;;;;;;;2.97;1.60;;;16.10;60.00;17.30;99241.00;;;;5009562;28;20179;-47
2023/03/13 05:42:17;;;;;;;3.13;1.57;;;16.10;59.90;17.30;99234.00;;;;5008756;28;20188;-45
2023/03/13 05:44:43;;;;;;;2.30;1.70;;;16.00;59.80;17.30;99223.00;;;;5009253;28;20180;-44
2023/03/13 05:47:09;;;;;;;2.17;1.50;;;16.00;59.90;17.30;99224.00;;;;5008722;28;20222;-44
2023/03/13 05:49:34;;;;;;;1.80;1.40;;;16.10;60.10;17.30;99217.00;;;;5008865;28;20265;-46
2023/03/13 05:52:00;;;;;;;3.00;1.73;;;16.00;59.90;17.30;99205.00;;;;5008691;28;20176;-45
2023/03/13 05:54:26;;;;;;;2.43;1.57;;;16.10;60.00;17.30;99211.00;;;;5008919;28;20187;-44
2023/03/13 05:56:51;;;;;;;2.90;1.50;;;16.10;60.00;17.30;99216.00;;;;5008976;28;20566;-45
2023/03/13 05:59:17;;;;;;;2.77;1.47;;;16.10;60.00;17.30;99215.00;;;;5008805;28;20184;-44
2023/03/13 06:01:43;;;;;;;1.40;1.30;;;16.10;60.00;17.30;99223.00;;;;5007464;28;20184;-45
2023/03/13 06:04:09;;;;;;;1.60;1.40;;;16.00;60.00;17.30;99224.00;;;;5008956;28;20530;-44
2023/03/13 06:06:34;;;;;;;2.50;1.40;;;16.10;60.10;17.20;99225.00;;;;5008952;28;20179;-45
2023/03/13 06:09:00;;;;;;;3.47;1.67;;;16.00;60.00;17.30;99215.00;;;;5008114;28;20199;-45
2023/03/13 06:11:26;;;;;;;2.70;1.37;;;16.00;60.00;17.20;99225.00;;;;5008332;28;20184;-45
2023/03/13 06:13:52;;;;;;;1.87;1.40;;;16.00;60.00;17.20;99224.00;;;;5008336;28;20180;-45
2023/03/13 06:16:17;;;;;;;1.50;1.33;;;16.00;60.00;17.30;99240.00;;;;5008687;28;20168;-45
2023/03/13 06:18:43;;;;;;;1.90;1.20;;;16.00;60.10;17.20;99238.00;;;;5008127;28;20227;-45
2023/03/13 06:21:09;;;;;;;3.83;1.30;;;16.00;60.10;17.20;99236.00;;;;5008216;28;20271;-45
2023/03/13 06:23:35;;;;;;;1.50;1.40;;;16.00;60.00;17.20;99243.00;;;;5011309;28;20681;-45
2023/03/13 06:26:01;;;;;;;1.23;1.13;;;16.00;60.10;17.20;99240.00;;;;5012617;28;20176;-46
2023/03/13 06:28:27;;;;;;;1.40;1.30;;;16.00;60.10;17.20;99248.00;;;;5011850;28;20203;-44
2023/03/13 06:30:52;;;;;;;1.30;1.20;;;16.00;60.10;17.20;99245.00;;;;5017394;28;20242;-47
2023/03/13 06:33:18;;;;;;;1.40;1.30;;;16.00;60.00;17.20;99245.00;;;;5011822;28;20176;-45
2023/03/13 06:35:44;;;;;;;1.40;1.30;;;16.00;60.10;17.20;99241.00;;;;5012336;28;20176;-47
2023/03/13 06:38:10;;;;;;;1.13;1.10;;;16.00;60.10;17.20;99250.00;;;;5011690;28;20298;-46
2023/03/13 06:40:36;;;;;;;2.20;1.27;;;16.00;60.10;17.20;99238.00;;;;5011253;28;20203;-45
2023/03/13 06:43:01;;;;;;;1.20;1.13;;;16.00;60.10;17.20;99245.00;;;;5011631;28;20184;-45
2023/03/13 06:45:27;;;;;;;4.43;1.50;;;16.00;60.40;17.20;99259.00;;;;5012198;28;20180;-46
2023/03/13 06:47:53;;;;;;;2.17;1.30;;;16.00;60.40;17.20;99242.00;;;;5010564;28;20628;-45
2023/03/13 06:50:18;;;;;;;1.60;1.50;;;16.00;61.40;17.20;99250.00;;;;5011541;28;20200;-45
2023/03/13 06:52:45;;;;;;;2.03;1.27;;;16.00;60.50;17.20;99263.00;;;;5011848;28;20176;-45
2023/03/13 06:55:11;;;;;;;1.30;1.20;;;16.00;60.40;17.20;99249.00;;;;5011796;28;20595;-46
2023/03/13 06:57:37;;;;;;;1.43;1.33;;;16.00;60.40;17.20;99258.00;;;;5010766;28;20242;-45
2023/03/13 07:00:05;;;;;;;1.93;1.53;;;16.00;60.40;17.20;99260.00;;;;5011040;28;20603;-45
2023/03/13 07:02:31;;;;;;;3.63;1.33;;;16.00;60.40;17.20;99257.00;;;;5011063;28;20204;-44
2023/03/13 07:04:56;;;;;;;1.33;1.23;;;16.00;60.40;17.20;99262.00;;;;5011786;28;20180;-45
2023/03/13 07:07:22;;;;;;;1.40;1.30;;;16.00;60.40;17.20;99262.00;;;;5011200;28;20199;-45
2023/03/13 07:09:48;;;;;;;1.53;1.37;;;16.00;60.40;17.20;99249.00;;;;5011113;28;20210;-45
2023/03/13 07:12:13;;;;;;;1.30;1.20;;;16.00;60.40;17.10;99270.00;;;;5011629;28;20180;-46
2023/03/13 07:14:39;;;;;;;1.20;1.10;;;16.00;60.50;17.20;99264.00;;;;5011980;28;20226;-45
2023/03/13 07:17:05;;;;;;;1.53;1.33;;;16.00;60.40;17.20;99259.00;;;;5011180;28;20714;-46
2023/03/13 07:19:31;;;;;;;2.00;1.30;;;16.00;60.40;17.20;99256.00;;;;5010666;28;20207;-45
2023/03/13 07:21:56;;;;;;;1.20;1.10;;;16.00;60.40;17.20;99255.00;;;;5011032;28;20188;-46
2023/03/13 07:24:22;;;;;;;1.43;1.33;;;16.00;60.40;17.20;99259.00;;;;5010915;28;20196;-45
2023/03/13 07:26:48;;;;;;;1.40;1.30;;;16.00;60.50;17.20;99262.00;;;;5011197;28;20623;-45
2023/03/13 07:29:14;;;;;;;1.27;1.10;;;15.90;60.40;17.20;99270.00;;;;5009655;28;20207;-45
2023/03/13 07:31:40;;;;;;;1.30;1.20;;;16.00;60.50;17.20;99265.00;;;;5010405;28;20175;-45
2023/03/13 07:34:05;;;;;;;1.27;1.17;;;16.00;60.50;17.20;99272.00;;;;5010961;28;20183;-45
2023/03/13 07:36:34;;;;;;;1.63;1.37;;;15.90;60.50;17.20;99275.00;;;;5010731;28;20210;-45
2023/03/13 07:38:59;;;;;;;1.17;1.07;;;16.00;60.70;17.10;99258.00;;;;5010888;28;20203;-45
2023/03/13 07:41:25;;;;;;;1.40;1.30;;;16.00;60.60;17.10;99260.00;;;;5010590;28;20253;-44
2023/03/13 07:43:51;;;;;;;1.20;1.10;;;15.90;60.40;17.10;99265.00;;;;5007898;28;20263;-45
2023/03/13 07:46:18;;;;;;;1.90;1.20;;;15.90;60.50;17.10;99248.00;;;;5011179;28;20258;-45
2023/03/13 07:48:44;;;;;;;1.73;1.13;;;15.90;60.50;17.10;99236.00;;;;5013620;28;20194;-46
2023/03/13 07:51:18;;;;;;;1.47;1.37;;;15.90;60.50;17.10;99254.00;;;;5012084;28;20204;-44
2023/03/13 07:53:46;;;;;;;1.83;1.50;;;15.90;60.50;17.10;99230.00;;;;5011312;28;20179;-45
2023/03/13 07:56:16;;;;;;;1.80;1.17;;;15.90;60.50;17.10;99234.00;;;;5010602;28;20965;-45
2023/03/13 07:58:42;;;;;;;1.40;1.30;;;15.90;60.70;17.10;99239.00;;;;5010260;28;20726;-45
2023/03/13 08:01:19;;;;;;;1.07;1.07;;;16.00;60.70;17.10;99229.00;;;;5008688;28;20198;-45
2023/03/13 08:03:47;;;;;;;1.50;1.40;;;15.90;60.70;17.10;99232.00;;;;5002364;28;20268;-44
2023/03/13 08:06:15;;;;;;;1.60;1.27;;;15.90;61.10;17.10;99225.00;;;;5007448;28;20326;-45
2023/03/13 08:08:41;;;;;;;2.13;1.50;;;15.90;60.90;17.10;99222.00;;;;5009472;28;20262;-44
2023/03/13 08:11:10;;;;;;;1.87;1.10;;;15.90;61.20;17.10;99222.00;;;;5011009;28;20711;-45
2023/03/13 08:13:36;;;;;;;3.33;1.33;;;15.90;61.00;17.10;99219.00;;;;5010354;28;20190;-45
2023/03/13 08:16:11;;;;;;;3.57;1.40;;;15.90;61.20;17.10;99215.00;;;;5010469;28;20230;-44
2023/03/13 08:18:38;;;;;;;2.23;1.40;;;16.00;61.20;17.10;99141.00;;;;5009591;28;20253;-44
2023/03/13 08:21:13;;;;;;;2.13;1.20;;;16.00;61.40;17.10;99210.00;;;;5009605;28;20190;-45
2023/03/13 08:23:39;;;;;;;2.67;1.50;;;15.90;61.30;17.10;99224.00;;;;5007562;28;20190;-45
2023/03/13 08:26:08;;;;;;;1.50;1.40;;;15.90;61.20;17.10;99218.00;;;;5011256;28;20566;-44
2023/03/13 08:28:35;;;;;;;1.40;1.30;;;15.90;61.20;17.10;99206.00;;;;5012618;28;20211;-45
2023/03/13 08:31:12;;;;;;;1.60;1.50;;;15.90;61.20;17.10;99213.00;;;;5005714;28;20314;-45
2023/03/13 08:33:39;;;;;;;1.40;1.30;;;15.90;61.20;17.10;99219.00;;;;5002988;28;20179;-45
2023/03/13 08:36:22;;;;;;;1.60;1.50;;;15.90;61.30;17.10;99211.00;;;;5009845;28;20172;-45
2023/03/13 08:38:48;;;;;;;2.20;1.60;;;15.90;61.20;17.10;99210.00;;;;5010812;28;20257;-44
2023/03/13 08:41:18;;;;;;;1.63;1.53;;;15.90;61.20;17.10;99218.00;;;;5009996;28;20180;-45
2023/03/13 08:43:44;;;;;;;1.83;1.27;;;15.90;61.20;17.10;99217.00;;;;5010173;28;20310;-46
2023/03/13 08:46:10;;;;;;;2.80;1.50;;;15.90;61.10;17.10;99221.00;;;;5008424;28;20666;-46
2023/03/13 08:48:36;;;;;;;2.13;1.43;;;15.90;61.20;17.10;99205.00;;;;5008773;28;20219;-45
2023/03/13 08:51:10;;;;;;;1.43;1.40;;;15.90;61.20;17.10;99211.00;;;;5009249;28;20748;-44
2023/03/13 08:53:36;;;;;;;2.87;1.37;;;15.90;61.10;17.10;99217.00;;;;5009253;28;20191;-45
2023/03/13 08:56:03;;;;;;;2.37;1.40;;;15.90;61.20;17.00;99224.00;;;;5008472;28;20677;-46
2023/03/13 08:58:29;;;;;;;1.93;1.40;;;15.90;61.20;17.10;99226.00;;;;5010202;28;20222;-45
2023/03/13 09:01:02;;;;;;;2.73;1.53;;;15.90;61.20;17.10;99218.00;;;;5007599;28;20341;-45
2023/03/13 09:03:28;;;;;;;2.70;1.40;;;15.90;61.30;17.10;99214.00;;;;5008764;28;20192;-44
2023/03/13 09:05:56;;;;;;;3.00;1.40;;;15.90;61.40;17.10;99229.00;;;;5008811;28;20186;-45
2023/03/13 09:08:22;;;;;;;1.67;1.40;;;15.90;61.40;17.10;99216.00;;;;5003589;28;20201;-44
2023/03/13 09:10:53;;;;;;;1.50;1.40;;;15.90;61.50;17.10;99221.00;;;;5010464;28;20769;-44
2023/03/13 09:13:19;;;;;;;6.37;1.60;;;15.90;61.40;17.10;99211.00;;;;4992793;28;20172;-44
2023/03/13 09:15:44;;;;;;;4.27;1.50;;;15.90;61.50;17.10;99218.00;;;;5009316;28;20179;-44
2023/03/13 09:18:10;;;;;;;5.17;1.70;;;15.90;62.40;17.10;99202.00;;;;5009790;28;20200;-44
2023/03/13 09:20:37;;;;;;;10.10;1.90;;;15.90;61.90;17.10;99205.00;;;;5009241;28;20686;-44
2023/03/13 09:23:03;;;;;;;4.97;1.80;;;15.90;62.10;17.10;99211.00;;;;5009196;28;20562;-45
2023/03/13 09:25:28;;;;;;;7.20;1.87;;;15.90;62.20;17.10;99200.00;;;;5009388;28;20187;-44
2023/03/13 09:27:54;;;;;;;7.50;1.90;;;15.90;62.40;17.10;99199.00;;;;5007489;28;20195;-45
2023/03/13 09:30:20;;;;;;;5.67;1.97;;;15.90;62.40;17.10;99211.00;;;;5009332;28;20214;-44
2023/03/13 09:32:46;;;;;;;4.97;1.80;;;15.90;62.40;17.10;99196.00;;;;5008625;28;20183;-45
2023/03/13 09:35:11;;;;;;;3.13;1.80;;;15.90;62.40;17.10;99195.00;;;;5009322;28;20665;-45
2023/03/13 09:37:37;;;;;;;3.17;1.80;;;15.90;62.70;17.10;99182.00;;;;5009682;28;20227;-45
2023/03/13 09:40:04;;;;;;;2.80;1.70;;;15.90;62.60;17.10;99177.00;;;;5009042;28;20275;-45
2023/03/13 09:42:48;;;;;;;6.13;1.90;;;15.90;62.40;17.10;99177.00;;;;5024083;28;20176;-45
2023/03/13 09:45:37;;;;;;;5.20;1.60;;;15.90;62.30;17.10;99171.00;;;;5009092;28;20187;-44
2023/03/13 09:48:27;;;;;;;2.03;1.70;;;15.90;62.30;17.10;99171.00;;;;5009326;28;20245;-46
2023/03/13 09:51:30;;;;;;;2.80;1.57;;;15.90;62.30;17.10;99178.00;;;;5007692;28;20207;-45
2023/03/13 09:54:27;;;;;;;2.13;1.60;;;15.90;62.30;17.10;99170.00;;;;5008664;28;20175;-47
2023/03/13 09:57:19;;;;;;;2.03;1.73;;;15.90;62.40;17.10;99164.00;;;;5008034;28;20187;-45
2023/03/13 09:59:51;;;;;;;1.93;1.60;;;15.90;62.30;17.10;99173.00;;;;5011014;28;20188;-46
2023/03/13 10:02:33;;;;;;;2.67;1.70;;;15.90;62.50;17.10;99172.00;;;;5010809;28;20720;-45
2023/03/13 10:05:26;;;;;;;4.80;1.70;;;15.90;63.10;17.10;99179.00;;;;5011748;28;20179;-45
2023/03/13 10:08:25;;;;;;;3.43;1.40;;;15.90;63.30;17.10;99178.00;;;;5015848;28;20211;-45
2023/03/13 10:11:23;;;;;;;3.00;1.83;;;15.90;63.40;17.10;99168.00;;;;5011098;28;20223;-45
2023/03/13 10:14:05;;;;;;;4.30;1.50;;;15.90;63.10;17.10;99178.00;;;;5024306;28;20176;-49
2023/03/13 10:16:55;;;;;;;8.53;2.00;;;15.90;63.20;17.10;99152.00;;;;5012160;28;20172;-46
2023/03/13 10:19:34;;;;;;;4.30;1.90;;;15.90;63.60;17.10;99171.00;;;;4987753;28;20179;-46
2023/03/13 10:22:01;;;;;;;8.87;1.97;;;15.90;63.30;17.10;99163.00;;;;5010498;28;20171;-45
2023/03/13 10:24:49;;;;;;;8.57;2.00;;;16.00;63.50;17.10;99140.00;;;;5011864;28;20187;-45
2023/03/13 10:27:15;;;;;;;6.87;1.90;;;16.00;63.50;17.10;99147.00;;;;5011250;28;20203;-45
2023/03/13 10:29:41;;;;;;;7.03;2.07;;;15.90;63.20;17.10;99135.00;;;;5017319;28;20207;-45
2023/03/13 10:32:07;;;;;;;8.07;1.90;;;16.00;63.30;17.10;99140.00;;;;5011898;28;20201;-45
2023/03/13 10:35:02;;;;;;;9.27;2.03;;;16.00;63.20;17.10;99145.00;;;;5012315;28;20175;-45
2023/03/13 10:37:30;;;;;;;7.23;1.83;;;16.00;63.10;17.10;99132.00;;;;5012459;28;20223;-45
2023/03/13 10:40:23;;;;;;;4.67;1.83;;;16.00;63.10;17.10;99135.00;;;;5012492;28;20184;-46
2023/03/13 10:42:51;;;;;;;6.03;1.90;;;15.90;63.20;17.10;99125.00;;;;5027151;28;20238;-45
2023/03/13 10:45:21;;;;;;;7.00;2.13;;;16.00;63.40;17.10;99115.00;;;;5011066;28;20251;-45
2023/03/13 10:47:59;;;;;;;11.13;2.00;;;16.00;63.30;17.10;99114.00;;;;5011721;28;20698;-45
2023/03/13 10:50:26;;;;;;;3.23;1.70;;;16.00;63.30;17.10;99115.00;;;;5010473;28;20286;-46
2023/03/13 10:52:53;;;;;;;4.60;1.70;;;16.00;63.70;17.20;99112.00;;;;5010700;28;20172;-45
2023/03/13 10:55:21;;;;;;;7.63;1.67;;;16.00;63.60;17.20;99115.00;;;;5012727;28;20183;-48
2023/03/13 10:58:01;;;;;;;7.93;2.20;;;16.00;63.60;17.20;99113.00;;;;5012235;28;20265;-45
2023/03/13 11:00:37;;;;;;;5.87;1.80;;;16.00;63.30;17.20;99108.00;;;;5010204;28;20249;-44
2023/03/13 11:03:17;;;;;;;6.67;1.73;;;16.00;63.20;17.20;99113.00;;;;5010309;28;20204;-44
2023/03/13 11:05:44;;;;;;;4.33;2.10;;;16.00;63.20;17.20;99096.00;;;;5011348;28;20253;-44